Time;durP1;ratioP1;P1;durP2;ratioP2;P2;SDS_P1;SDS_P2;PMS_P1;PMS_P2;Temp;Humidity;BMP_temperature;BMP_pressure;BME280_temperature;BME280_humidity;BME280_pressure;Samples;Min_cycle;Max_cycle;Signal;HPM_P1;HPM_P2
2024/01/08 00:01:35;;;;;;;0.50;0.50;;;;;;;-2.23;100.00;102677.97;5019749;28;20116;-75
2024/01/08 00:04:01;;;;;;;0.50;0.50;;;;;;;-2.11;100.00;102683.78;5019624;28;20382;-75
2024/01/08 00:06:27;;;;;;;0.50;0.50;;;;;;;-2.07;100.00;102691.53;5020244;28;20120;-75
2024/01/08 00:08:52;;;;;;;0.50;0.50;;;;;;;-2.01;100.00;102685.25;5019387;28;20458;-75
2024/01/08 00:11:18;;;;;;;0.50;0.50;;;;;;;-1.95;100.00;102689.47;5019458;28;20024;-75
2024/01/08 00:13:44;;;;;;;0.50;0.50;;;;;;;-1.88;100.00;102685.69;5019555;28;20131;-75
2024/01/08 00:16:09;;;;;;;0.50;0.50;;;;;;;-1.89;100.00;102686.63;5019566;28;20036;-75
2024/01/08 00:18:35;;;;;;;0.50;0.50;;;;;;;-1.80;100.00;102691.59;5020156;28;20033;-75
2024/01/08 00:21:02;;;;;;;0.50;0.50;;;;;;;-1.78;100.00;102684.50;5035403;28;20029;-75
2024/01/08 00:23:29;;;;;;;0.50;0.50;;;;;;;-1.78;100.00;102689.78;5035705;28;20032;-75
2024/01/08 00:25:55;;;;;;;0.50;0.50;;;;;;;-1.79;100.00;102691.56;5019405;28;20059;-75
2024/01/08 00:28:21;;;;;;;0.50;0.50;;;;;;;-1.78;100.00;102688.00;5019489;28;20510;-75
2024/01/08 00:30:46;;;;;;;0.50;0.50;;;;;;;-1.79;100.00;102702.09;5019040;28;20041;-75
2024/01/08 00:33:12;;;;;;;0.50;0.50;;;;;;;-1.83;100.00;102692.53;5052249;28;20037;-75
2024/01/08 00:35:38;;;;;;;0.60;0.60;;;;;;;-1.82;100.00;102699.56;5035535;28;20033;-75
2024/01/08 00:38:03;;;;;;;0.50;0.50;;;;;;;-1.82;100.00;102696.94;5019396;28;20432;-75
2024/01/08 00:40:32;;;;;;;0.57;0.57;;;;;;;-1.74;100.00;102701.97;5019412;28;20033;-75
2024/01/08 00:43:00;;;;;;;0.60;0.60;;;;;;;-1.75;100.00;102699.38;5036133;28;20480;-75
2024/01/08 00:45:26;;;;;;;0.50;0.50;;;;;;;-1.75;100.00;102696.72;5019627;28;20083;-75
2024/01/08 00:47:51;;;;;;;0.50;0.50;;;;;;;-1.79;100.00;102695.97;5019300;28;20387;-75
2024/01/08 00:50:17;;;;;;;0.60;0.60;;;;;;;-1.82;100.00;102696.94;5035149;28;20056;-75
2024/01/08 00:52:43;;;;;;;0.50;0.50;;;;;;;-1.81;100.00;102696.00;5020838;28;20438;-75
2024/01/08 00:55:11;;;;;;;0.50;0.50;;;;;;;-1.81;100.00;102687.22;5023263;28;20032;-75
2024/01/08 00:57:38;;;;;;;0.50;0.50;;;;;;;-1.82;100.00;102693.44;5040351;28;20029;-75
2024/01/08 01:00:05;;;;;;;0.50;0.50;;;;;;;-1.94;100.00;102683.25;5023116;28;20064;-75
2024/01/08 01:02:30;;;;;;;0.50;0.50;;;;;;;-2.05;100.00;102697.63;5039121;28;20035;-75
2024/01/08 01:04:57;;;;;;;0.50;0.50;;;;;;;-2.12;100.00;102695.22;5023027;28;20033;-75
2024/01/08 01:07:23;;;;;;;0.50;0.50;;;;;;;-2.15;100.00;102690.06;5023237;28;20040;-75
2024/01/08 01:09:48;;;;;;;0.50;0.50;;;;;;;-2.16;100.00;102696.25;5039124;28;20498;-75
2024/01/08 01:12:14;;;;;;;0.50;0.50;;;;;;;-2.21;100.00;102688.47;5022562;28;20033;-75
2024/01/08 01:14:40;;;;;;;0.50;0.50;;;;;;;-2.26;100.00;102693.00;5039264;28;20055;-75
2024/01/08 01:17:06;;;;;;;0.50;0.50;;;;;;;-2.30;100.00;102694.88;5039188;28;20085;-75
2024/01/08 01:19:32;;;;;;;0.50;0.50;;;;;;;-2.33;100.00;102709.91;5022798;28;20037;-75
2024/01/08 01:21:58;;;;;;;0.50;0.50;;;;;;;-2.34;100.00;102701.13;5039062;28;20040;-75
2024/01/08 01:24:24;;;;;;;0.50;0.50;;;;;;;-2.29;100.00;102704.50;5022746;28;20045;-75
2024/01/08 01:26:49;;;;;;;0.50;0.50;;;;;;;-2.19;100.00;102712.16;5022631;28;20407;-75
2024/01/08 01:29:15;;;;;;;0.50;0.50;;;;;;;-2.21;100.00;102702.50;5022561;28;20045;-75
2024/01/08 01:31:41;;;;;;;0.50;0.50;;;;;;;-2.18;100.00;102704.19;5022269;28;20138;-75
2024/01/08 01:34:08;;;;;;;0.50;0.50;;;;;;;-2.12;100.00;102713.66;5038513;28;20383;-75
2024/01/08 01:36:35;;;;;;;0.50;0.50;;;;;;;-2.13;100.00;102712.81;5039039;28;20056;-75
2024/01/08 01:39:04;;;;;;;0.57;0.57;;;;;;;-1.96;100.00;102714.94;5038786;28;20039;-75
2024/01/08 01:41:32;;;;;;;0.50;0.50;;;;;;;-1.95;100.00;102711.41;5038946;28;20175;-75
2024/01/08 01:43:58;;;;;;;0.50;0.50;;;;;;;-1.80;100.00;102708.31;5022357;28;20132;-75
2024/01/08 01:46:53;;;;;;;0.50;0.50;;;;;;;-1.71;100.00;102698.38;5022218;28;20479;-75
2024/01/08 01:49:20;;;;;;;0.50;0.50;;;;;;;-1.74;100.00;102690.56;5013079;28;20086;-75
2024/01/08 01:51:47;;;;;;;0.50;0.50;;;;;;;-1.89;100.00;102686.63;5021966;28;20459;-75
2024/01/08 01:54:18;;;;;;;0.50;0.50;;;;;;;-1.87;100.00;102690.94;5022098;28;20067;-75
2024/01/08 01:56:46;;;;;;;0.50;0.50;;;;;;;-1.89;100.00;102684.84;5022276;28;20029;-75
2024/01/08 01:59:12;;;;;;;0.50;0.50;;;;;;;-1.91;100.00;102688.44;5038351;28;20478;-75
2024/01/08 02:01:37;;;;;;;0.50;0.50;;;;;;;-1.90;100.00;102706.00;5021947;28;20032;-75
2024/01/08 02:04:03;;;;;;;0.50;0.50;;;;;;;-1.95;100.00;102697.38;5054283;28;20033;-75
2024/01/08 02:06:29;;;;;;;0.50;0.50;;;;;;;-2.01;100.00;102687.88;5038889;28;20041;-75
2024/01/08 02:08:55;;;;;;;0.50;0.50;;;;;;;-2.00;100.00;102690.44;5021872;28;20173;-75
2024/01/08 02:11:21;;;;;;;0.50;0.50;;;;;;;-2.05;100.00;102686.22;5054562;28;20037;-75
2024/01/08 02:13:50;;;;;;;0.50;0.50;;;;;;;-2.05;100.00;102687.09;5021759;28;20043;-75
2024/01/08 02:16:17;;;;;;;0.50;0.50;;;;;;;-2.03;100.00;102689.69;5021728;28;20136;-75
2024/01/08 02:18:43;;;;;;;0.60;0.60;;;;;;;-2.02;100.00;102691.41;5022664;28;20032;-75
2024/01/08 02:21:09;;;;;;;0.50;0.50;;;;;;;-1.97;100.00;102692.13;5021573;28;20387;-75
2024/01/08 02:23:35;;;;;;;0.60;0.60;;;;;;;-1.97;100.00;102694.75;5021651;28;20039;-75
2024/01/08 02:26:01;;;;;;;0.50;0.50;;;;;;;-1.96;100.00;102691.19;5021217;28;20032;-75
2024/01/08 02:28:26;;;;;;;0.50;0.50;;;;;;;-1.82;100.00;102699.56;5021507;28;20127;-75
2024/01/08 02:30:52;;;;;;;0.50;0.50;;;;;;;-1.79;100.00;102693.34;5021128;28;20037;-75
2024/01/08 02:33:18;;;;;;;0.50;0.50;;;;;;;-1.84;100.00;102698.75;5037921;28;20055;-75
2024/01/08 02:35:43;;;;;;;0.50;0.50;;;;;;;-1.83;100.00;102700.44;5021372;28;20036;-75
2024/01/08 02:38:09;;;;;;;0.50;0.50;;;;;;;-1.84;100.00;102680.28;5021001;28;20032;-75
2024/01/08 02:40:35;;;;;;;0.50;0.50;;;;;;;-1.82;100.00;102698.72;5021342;28;20039;-75
2024/01/08 02:43:00;;;;;;;0.50;0.50;;;;;;;-1.78;100.00;102701.19;5021323;28;20376;-75
2024/01/08 02:45:26;;;;;;;0.50;0.50;;;;;;;-1.82;100.00;102699.56;5021185;28;20541;-75
2024/01/08 02:47:52;;;;;;;0.60;0.60;;;;;;;-1.80;100.00;102705.66;5037603;28;20067;-75
2024/01/08 02:50:18;;;;;;;0.50;0.50;;;;;;;-1.78;100.00;102702.97;5021005;28;20045;-75
2024/01/08 02:52:44;;;;;;;0.50;0.50;;;;;;;-1.74;100.00;102701.97;5021618;28;20082;-75
2024/01/08 02:55:10;;;;;;;0.50;0.50;;;;;;;-1.70;100.00;102711.47;5053615;28;20057;-75
2024/01/08 02:57:36;;;;;;;0.50;0.50;;;;;;;-1.69;100.00;102710.59;5037407;28;20048;-75
2024/01/08 03:00:04;;;;;;;0.50;0.50;;;;;;;-1.70;100.00;102705.34;5036931;28;20032;-75
2024/01/08 03:02:33;;;;;;;0.50;0.50;;;;;;;-1.76;100.00;102698.50;5037492;28;20040;-75
2024/01/08 03:04:59;;;;;;;0.50;0.50;;;;;;;-1.73;100.00;102698.41;5021116;28;20094;-75
2024/01/08 03:07:25;;;;;;;0.50;0.50;;;;;;;-1.67;100.00;102699.97;5020626;28;20044;-75
2024/01/08 03:09:51;;;;;;;0.57;0.57;;;;;;;-1.59;100.00;102700.59;5020680;28;20044;-75
2024/01/08 03:12:16;;;;;;;1.05;1.05;;;;;;;-1.53;100.00;102705.69;5020451;28;20069;-75
2024/01/08 03:14:43;;;;;;;0.50;0.50;;;;;;;-1.48;100.00;102701.13;5019777;28;20037;-75
2024/01/08 03:17:09;;;;;;;0.50;0.50;;;;;;;-1.43;100.00;102706.22;5036979;28;20040;-76
2024/01/08 03:19:34;;;;;;;0.50;0.50;;;;;;;-1.39;100.00;102699.94;5037465;28;20088;-75
2024/01/08 03:22:01;;;;;;;0.60;0.60;;;;;;;-1.34;100.00;102712.06;5020505;28;20379;-75
2024/01/08 03:24:27;;;;;;;0.60;0.60;;;;;;;-1.37;100.00;102691.06;5053011;28;20029;-75
2024/01/08 03:26:53;;;;;;;0.50;0.50;;;;;;;-1.41;100.00;102701.78;5020415;28;20044;-75
2024/01/08 03:29:19;;;;;;;0.50;0.50;;;;;;;-1.47;100.00;102696.72;5053256;28;20383;-75
2024/01/08 03:31:45;;;;;;;0.50;0.50;;;;;;;-1.58;100.00;102697.91;5020140;28;20029;-75
2024/01/08 03:34:12;;;;;;;0.50;0.50;;;;;;;-1.74;100.00;102691.41;5020232;28;20098;-75
2024/01/08 03:36:37;;;;;;;0.60;0.60;;;;;;;-1.93;100.00;102692.88;5020697;28;20361;-75
2024/01/08 03:39:03;;;;;;;0.50;0.50;;;;;;;-1.98;100.00;102685.13;5020165;28;20033;-75
2024/01/08 03:41:29;;;;;;;0.50;0.50;;;;;;;-1.96;100.00;102699.13;5020118;28;20058;-75
2024/01/08 03:43:54;;;;;;;0.60;0.60;;;;;;;-1.96;100.00;102688.56;5020359;28;20037;-75
2024/01/08 03:46:20;;;;;;;0.55;0.55;;;;;;;-1.87;100.00;102700.63;5020065;28;20383;-75
2024/01/08 03:48:46;;;;;;;0.50;0.50;;;;;;;-1.80;100.00;102689.84;5036504;28;20036;-75
2024/01/08 03:51:12;;;;;;;0.50;0.50;;;;;;;-1.67;100.00;102689.44;5019766;28;20459;-75
2024/01/08 03:53:37;;;;;;;0.50;0.50;;;;;;;-1.63;100.00;102696.34;5052771;28;20032;-75
2024/01/08 03:56:04;;;;;;;0.52;0.52;;;;;;;-1.64;100.00;102700.75;5019925;28;20071;-75
2024/01/08 03:58:29;;;;;;;0.60;0.60;;;;;;;-1.63;100.00;102699.84;5019855;28;20028;-75
2024/01/08 04:00:55;;;;;;;0.50;0.50;;;;;;;-1.61;100.00;102702.44;5036154;28;20040;-75
2024/01/08 04:03:22;;;;;;;0.50;0.50;;;;;;;-1.60;100.00;102693.59;5019857;28;20041;-75
2024/01/08 04:05:48;;;;;;;0.50;0.50;;;;;;;-1.61;100.00;102691.88;5036406;28;20095;-75
2024/01/08 04:08:14;;;;;;;0.50;0.50;;;;;;;-1.56;100.00;102684.69;5019721;28;20029;-75
2024/01/08 04:10:39;;;;;;;0.50;0.50;;;;;;;-1.50;100.00;102692.38;5019401;28;20454;-75
2024/01/08 04:13:05;;;;;;;0.50;0.50;;;;;;;-1.57;100.00;102677.66;5035946;28;20033;-75
2024/01/08 04:15:31;;;;;;;0.50;0.50;;;;;;;-1.51;100.00;102685.38;5052447;28;20041;-75
2024/01/08 04:17:57;;;;;;;0.50;0.50;;;;;;;-1.49;100.00;102701.16;5019627;28;20084;-75
2024/01/08 04:20:22;;;;;;;0.50;0.50;;;;;;;-1.62;100.00;102700.69;5035975;28;20037;-75
2024/01/08 04:22:49;;;;;;;0.50;0.50;;;;;;;-1.80;100.00;102687.19;5019516;28;20056;-75
2024/01/08 04:25:15;;;;;;;0.50;0.50;;;;;;;-2.00;100.00;102674.63;5035876;28;20044;-75
2024/01/08 04:27:40;;;;;;;0.50;0.50;;;;;;;-2.10;100.00;102683.72;5019278;28;20041;-75
2024/01/08 04:30:06;;;;;;;0.50;0.50;;;;;;;-2.27;100.00;102684.25;5052463;28;20037;-75
2024/01/08 04:32:32;;;;;;;0.50;0.50;;;;;;;-2.34;100.00;102687.09;5052542;28;20033;-75
2024/01/08 04:34:58;;;;;;;0.50;0.50;;;;;;;-2.39;100.00;102681.09;5035851;28;20458;-75
2024/01/08 04:37:23;;;;;;;0.50;0.50;;;;;;;-2.52;100.00;102676.19;5035771;28;20029;-75
2024/01/08 04:39:49;;;;;;;0.50;0.50;;;;;;;-2.59;100.00;102673.75;5019421;28;20044;-75
2024/01/08 04:42:15;;;;;;;0.50;0.50;;;;;;;-2.61;100.00;102671.19;5019266;28;20045;-76
2024/01/08 04:44:40;;;;;;;0.50;0.50;;;;;;;-2.63;100.00;102674.78;5019259;28;20494;-75
2024/01/08 04:47:07;;;;;;;0.50;0.50;;;;;;;-2.68;100.00;102665.22;5019315;28;20032;-75
2024/01/08 04:49:32;;;;;;;0.50;0.50;;;;;;;-2.60;100.00;102665.00;5019369;28;20040;-76
2024/01/08 04:51:58;;;;;;;0.50;0.50;;;;;;;-2.55;100.00;102662.25;5019044;28;20029;-75
2024/01/08 04:54:24;;;;;;;0.50;0.50;;;;;;;-2.53;100.00;102660.44;5019322;28;20036;-75
2024/01/08 04:56:49;;;;;;;0.50;0.50;;;;;;;-2.47;100.00;102658.47;5035599;28;20391;-75
2024/01/08 04:59:15;;;;;;;0.50;0.50;;;;;;;-2.51;100.00;102656.00;5035618;28;20033;-75
2024/01/08 05:01:41;;;;;;;0.50;0.50;;;;;;;-2.48;100.00;102658.53;5019155;28;20128;-75
2024/01/08 05:04:07;;;;;;;0.57;0.57;;;;;;;-2.57;100.00;102656.16;5019173;28;20138;-75
2024/01/08 05:06:32;;;;;;;0.60;0.60;;;;;;;-2.66;100.00;102660.78;5019121;28;20505;-75
2024/01/08 05:08:58;;;;;;;0.50;0.50;;;;;;;-2.93;100.00;102649.28;5019225;28;20033;-75
2024/01/08 05:11:24;;;;;;;0.50;0.50;;;;;;;-3.02;100.00;102653.91;5036063;28;20058;-75
2024/01/08 05:13:50;;;;;;;0.57;0.57;;;;;;;-3.01;100.00;102639.88;5019087;28;20368;-75
2024/01/08 05:16:15;;;;;;;0.55;0.55;;;;;;;-3.03;100.00;102652.19;5035248;28;20029;-75
2024/01/08 05:18:41;;;;;;;0.50;0.50;;;;;;;-2.99;100.00;102653.81;5035419;28;20049;-75
2024/01/08 05:21:07;;;;;;;0.50;0.50;;;;;;;-3.06;100.00;102654.91;5051945;28;20033;-75
2024/01/08 05:23:33;;;;;;;0.50;0.50;;;;;;;-3.22;100.00;102650.06;5019252;28;20037;-75
2024/01/08 05:26:00;;;;;;;0.50;0.50;;;;;;;-3.34;100.00;102647.75;5018893;28;20490;-75
2024/01/08 05:28:27;;;;;;;0.50;0.50;;;;;;;-3.28;100.00;102652.88;5019172;28;20400;-75
2024/01/08 05:30:53;;;;;;;0.50;0.50;;;;;;;-3.22;100.00;102649.19;5035236;28;20037;-75
2024/01/08 05:33:20;;;;;;;0.50;0.50;;;;;;;-3.12;100.00;102653.31;5018823;28;20054;-75
2024/01/08 05:35:46;;;;;;;0.50;0.50;;;;;;;-3.13;100.00;102655.06;5018870;28;20037;-75
2024/01/08 05:38:12;;;;;;;0.50;0.50;;;;;;;-3.05;100.00;102656.63;5052486;28;20378;-75
2024/01/08 05:40:38;;;;;;;0.50;0.50;;;;;;;-3.10;100.00;102655.00;5022403;28;20032;-75
2024/01/08 05:43:04;;;;;;;0.50;0.50;;;;;;;-3.11;100.00;102663.78;5022289;28;20139;-75
2024/01/08 05:45:33;;;;;;;0.50;0.50;;;;;;;-3.09;100.00;102658.50;5038662;28;20033;-75
2024/01/08 05:47:58;;;;;;;0.50;0.50;;;;;;;-3.09;100.00;102671.66;5022190;28;20096;-75
2024/01/08 05:50:25;;;;;;;0.50;0.50;;;;;;;-3.10;100.00;102675.16;5022085;28;20033;-75
2024/01/08 05:52:52;;;;;;;0.50;0.50;;;;;;;-3.05;100.00;102675.06;5022274;28;20037;-75
2024/01/08 05:55:18;;;;;;;0.50;0.50;;;;;;;-3.00;100.00;102683.69;5038464;28;20433;-75
2024/01/08 05:57:44;;;;;;;0.50;0.50;;;;;;;-2.99;100.00;102674.88;5038235;28;20112;-75
2024/01/08 06:00:10;;;;;;;0.50;0.50;;;;;;;-2.99;100.00;102686.28;5022102;28;20122;-75
2024/01/08 06:02:36;;;;;;;0.60;0.60;;;;;;;-2.93;100.00;102677.38;5022054;28;20079;-75
2024/01/08 06:05:02;;;;;;;0.55;0.55;;;;;;;-2.94;100.00;102675.63;5021897;28;20088;-75
2024/01/08 06:07:27;;;;;;;0.50;0.50;;;;;;;-2.91;100.00;102668.53;5021899;28;20123;-75
2024/01/08 06:09:56;;;;;;;0.50;0.50;;;;;;;-2.79;100.00;102682.25;5021824;28;20072;-75
2024/01/08 06:12:22;;;;;;;0.50;0.50;;;;;;;-2.67;100.00;102672.25;5021543;28;20467;-75
2024/01/08 06:14:49;;;;;;;0.50;0.50;;;;;;;-2.57;100.00;102671.97;5021792;28;20041;-75
2024/01/08 06:17:14;;;;;;;0.50;0.50;;;;;;;-2.59;100.00;102682.56;5021853;28;20127;-75
2024/01/08 06:19:41;;;;;;;0.50;0.50;;;;;;;-2.60;100.00;102686.06;5054298;28;20104;-75
2024/01/08 06:22:06;;;;;;;0.50;0.50;;;;;;;-2.61;100.00;102684.38;5021616;28;20043;-75
2024/01/08 06:24:32;;;;;;;0.50;0.50;;;;;;;-2.58;100.00;102686.06;5021546;28;20471;-75
2024/01/08 06:26:58;;;;;;;0.50;0.50;;;;;;;-2.49;100.00;102697.19;5021516;28;20039;-75
2024/01/08 06:29:24;;;;;;;0.50;0.50;;;;;;;-2.40;100.00;102682.03;5005177;28;20037;-75
2024/01/08 06:31:50;;;;;;;0.50;0.50;;;;;;;-2.37;100.00;102680.16;5021395;28;20029;-75
2024/01/08 06:34:15;;;;;;;0.50;0.50;;;;;;;-2.40;100.00;102679.41;5021567;28;20040;-75
2024/01/08 06:36:41;;;;;;;0.50;0.50;;;;;;;-2.45;100.00;102676.88;5021419;28;20505;-75
2024/01/08 06:39:09;;;;;;;0.50;0.50;;;;;;;-2.44;100.00;102678.59;5021353;28;20037;-75
2024/01/08 06:41:39;;;;;;;0.50;0.50;;;;;;;-2.48;100.00;102682.25;5038077;28;20028;-75
2024/01/08 06:44:05;;;;;;;0.50;0.50;;;;;;;-2.48;100.00;102682.25;5021406;28;20055;-75
2024/01/08 06:46:31;;;;;;;0.50;0.50;;;;;;;-2.50;100.00;102689.31;5037514;28;20217;-75
2024/01/08 06:48:57;;;;;;;0.50;0.50;;;;;;;-2.56;100.00;102694.78;5037579;28;20040;-75
2024/01/08 06:51:26;;;;;;;0.50;0.50;;;;;;;-2.55;100.00;102707.03;5020971;28;20379;-75
2024/01/08 06:53:58;;;;;;;0.60;0.60;;;;;;;-2.53;100.00;102697.31;5053694;28;20037;-75
2024/01/08 06:56:23;;;;;;;0.60;0.60;;;;;;;-2.50;100.00;102676.16;5020978;28;20098;-75
2024/01/08 06:59:05;;;;;;;0.50;0.50;;;;;;;-2.42;100.00;102684.69;5020868;28;20039;-75
2024/01/08 07:01:31;;;;;;;0.50;0.50;;;;;;;-2.47;100.00;102702.41;5037812;28;20021;-75
2024/01/08 07:03:57;;;;;;;0.50;0.50;;;;;;;-2.47;100.00;102697.13;5021289;28;20052;-75
2024/01/08 07:06:23;;;;;;;0.60;0.60;;;;;;;-2.47;100.00;102699.75;5037137;28;20364;-75
2024/01/08 07:08:49;;;;;;;0.50;0.50;;;;;;;-2.50;100.00;102700.72;5037066;28;20029;-75
2024/01/08 07:11:22;;;;;;;0.50;0.50;;;;;;;-2.50;100.00;102705.97;5036968;28;20032;-75
2024/01/08 07:13:49;;;;;;;0.60;0.60;;;;;;;-2.41;100.00;102711.91;5020711;28;20140;-75
2024/01/08 07:16:16;;;;;;;0.50;0.50;;;;;;;-2.36;100.00;102705.56;5053292;28;20072;-75
2024/01/08 07:18:42;;;;;;;0.50;0.50;;;;;;;-2.32;100.00;102720.41;5036941;28;20044;-75
2024/01/08 07:21:09;;;;;;;0.50;0.50;;;;;;;-2.33;100.00;102704.63;5036908;28;20029;-75
2024/01/08 07:23:35;;;;;;;0.50;0.50;;;;;;;-2.35;100.00;102698.56;5037350;28;20345;-75
2024/01/08 07:26:01;;;;;;;0.50;0.50;;;;;;;-2.37;100.00;102701.22;5020345;28;20036;-75
2024/01/08 07:28:28;;;;;;;0.50;0.50;;;;;;;-2.34;100.00;102706.41;5020352;28;20202;-75
2024/01/08 07:30:54;;;;;;;0.50;0.50;;;;;;;-2.30;100.00;102705.41;5036212;28;20040;-75
2024/01/08 07:33:21;;;;;;;0.60;0.60;;;;;;;-2.53;100.00;102665.72;5020203;28;20171;-75
2024/01/08 07:35:47;;;;;;;0.50;0.50;;;;;;;-2.27;100.00;102715.88;5020840;28;20530;-75
2024/01/08 07:38:13;;;;;;;0.50;0.50;;;;;;;-2.29;100.00;102711.53;5020267;28;20033;-75
2024/01/08 07:40:38;;;;;;;0.50;0.50;;;;;;;-2.28;100.00;102710.63;5003931;28;20044;-75
2024/01/08 07:43:04;;;;;;;0.50;0.50;;;;;;;-2.35;100.00;102725.78;5020022;28;20475;-75
2024/01/08 07:45:30;;;;;;;0.50;0.50;;;;;;;-2.37;100.00;102724.09;5020085;28;20036;-75
2024/01/08 07:47:56;;;;;;;0.50;0.50;;;;;;;-2.42;100.00;102718.94;5020102;28;20029;-75
2024/01/08 07:50:22;;;;;;;0.50;0.50;;;;;;;-2.33;100.00;102736.25;5037279;28;20094;-75
2024/01/08 07:52:48;;;;;;;0.50;0.50;;;;;;;-2.28;100.00;102729.06;5019684;28;20429;-75
2024/01/08 07:55:14;;;;;;;0.50;0.50;;;;;;;-2.18;100.00;102732.31;5035625;28;20041;-75
2024/01/08 07:57:39;;;;;;;0.50;0.50;;;;;;;-2.13;100.00;102730.41;5019828;28;20033;-75
2024/01/08 08:00:08;;;;;;;0.50;0.50;;;;;;;-2.21;100.00;102720.09;5019883;28;20045;-75
2024/01/08 08:02:34;;;;;;;0.52;0.52;;;;;;;-2.34;100.00;102722.22;5019669;28;20124;-75
2024/01/08 08:05:00;;;;;;;0.50;0.50;;;;;;;-2.46;100.00;102720.81;5035975;28;20048;-75
2024/01/08 08:07:28;;;;;;;0.60;0.60;;;;;;;-2.56;100.00;102721.13;5019802;28;20471;-75
2024/01/08 08:09:54;;;;;;;0.52;0.52;;;;;;;-2.63;100.00;102733.56;5035965;28;20033;-75
2024/01/08 08:12:20;;;;;;;0.50;0.50;;;;;;;-2.56;100.00;102729.00;5035863;28;20037;-75
2024/01/08 08:14:49;;;;;;;0.50;0.50;;;;;;;-2.44;100.00;102732.13;5019527;28;20028;-75
2024/01/08 08:17:40;;;;;;;0.50;0.50;;;;;;;-2.27;100.00;102741.34;5019940;28;20041;-75
2024/01/08 08:20:15;;;;;;;0.50;0.50;;;;;;;-2.21;100.00;102720.94;5022715;28;20036;-75
2024/01/08 08:22:40;;;;;;;0.50;0.50;;;;;;;-2.08;100.00;102734.63;5019556;28;20040;-75
2024/01/08 08:25:06;;;;;;;0.50;0.50;;;;;;;-2.04;100.00;102731.00;5035888;28;20040;-75
2024/01/08 08:27:35;;;;;;;0.50;0.50;;;;;;;-1.92;100.00;102742.09;5019405;28;20029;-75
2024/01/08 08:30:01;;;;;;;0.50;0.50;;;;;;;-1.83;100.00;102750.56;5036162;28;20028;-75
2024/01/08 08:32:29;;;;;;;0.50;0.50;;;;;;;-1.82;100.00;102748.81;5019634;28;20029;-76
2024/01/08 08:34:55;;;;;;;0.50;0.50;;;;;;;-1.79;100.00;102748.72;5019356;28;20040;-75
2024/01/08 08:37:20;;;;;;;0.50;0.50;;;;;;;-1.72;100.00;102758.16;5051889;28;20468;-75
2024/01/08 08:39:46;;;;;;;0.50;0.50;;;;;;;-1.68;100.00;102766.84;5019246;28;20112;-75
2024/01/08 08:42:12;;;;;;;0.50;0.50;;;;;;;-1.66;100.00;102767.66;5035753;28;20043;-75
2024/01/08 08:44:37;;;;;;;0.50;0.50;;;;;;;-1.64;100.00;102760.53;5019394;28;20040;-75
2024/01/08 08:47:03;;;;;;;0.50;0.50;;;;;;;-1.59;100.00;102761.25;5019256;28;20071;-75
2024/01/08 08:49:29;;;;;;;0.50;0.50;;;;;;;-1.53;100.00;102758.44;5019113;28;20041;-75
2024/01/08 08:51:55;;;;;;;0.50;0.50;;;;;;;-1.49;100.00;102757.44;5019005;28;20087;-75
2024/01/08 08:54:20;;;;;;;0.50;0.50;;;;;;;-1.44;100.00;102759.94;5019232;28;20028;-75
2024/01/08 08:56:46;;;;;;;0.50;0.50;;;;;;;-1.40;100.00;102765.06;5019143;28;20043;-75
2024/01/08 08:59:12;;;;;;;0.65;0.65;;;;;;;-1.33;100.00;102763.94;5035629;28;20045;-75
2024/01/08 09:01:37;;;;;;;0.50;0.50;;;;;;;-1.26;100.00;102755.84;5019034;28;20064;-75
2024/01/08 09:04:03;;;;;;;0.50;0.50;;;;;;;-1.31;100.00;102752.47;5019961;28;20044;-75
2024/01/08 09:06:33;;;;;;;0.50;0.50;;;;;;;-1.25;100.00;102750.50;5019173;28;20388;-75
2024/01/08 09:08:59;;;;;;;0.50;0.50;;;;;;;-1.31;100.00;102731.38;5035460;28;20032;-75
2024/01/08 09:11:27;;;;;;;0.50;0.50;;;;;;;-1.20;100.00;102753.84;5018920;28;20033;-75
2024/01/08 09:13:59;;;;;;;0.50;0.50;;;;;;;-1.16;100.00;102768.69;5022031;28;20033;-75
2024/01/08 09:16:26;;;;;;;0.50;0.50;;;;;;;-1.09;100.00;102761.41;5039247;28;20497;-75
2024/01/08 09:18:52;;;;;;;0.50;0.50;;;;;;;-1.03;100.00;102771.78;5039287;28;20044;-75
2024/01/08 09:21:17;;;;;;;0.50;0.50;;;;;;;-1.09;100.00;102768.47;5021936;28;20079;-75
2024/01/08 09:23:43;;;;;;;0.50;0.50;;;;;;;-1.29;100.00;102769.13;5039146;28;20037;-75
2024/01/08 09:26:10;;;;;;;0.50;0.50;;;;;;;-1.52;100.00;102765.44;5038101;28;20343;-75
2024/01/08 09:28:36;;;;;;;0.50;0.50;;;;;;;-1.69;100.00;102773.91;5006085;28;20545;-76
2024/01/08 09:31:03;;;;;;;0.50;0.50;;;;;;;-1.73;100.00;102785.44;5038157;28;20033;-76
2024/01/08 09:33:29;;;;;;;0.60;0.60;;;;;;;-1.72;100.00;102781.91;5005756;28;20044;-76
2024/01/08 09:35:56;;;;;;;0.50;0.50;;;;;;;-1.67;100.00;102779.09;5038327;28;20036;-76
2024/01/08 09:38:21;;;;;;;0.60;0.60;;;;;;;-1.52;100.00;102770.72;5037986;28;20132;-76
2024/01/08 09:40:48;;;;;;;0.50;0.50;;;;;;;-1.37;100.00;102780.78;5021892;28;20123;-75
2024/01/08 09:43:19;;;;;;;0.52;0.52;;;;;;;-1.41;100.00;102787.06;5022290;28;20041;-76
2024/01/08 09:46:06;;;;;;;0.50;0.50;;;;;;;-1.54;100.00;102796.28;5023204;28;20037;-76
2024/01/08 09:48:34;;;;;;;0.50;0.50;;;;;;;-1.58;100.00;102795.53;5054997;28;20532;-75
2024/01/08 09:51:02;;;;;;;0.50;0.50;;;;;;;-1.55;100.00;102792.78;5038817;28;20028;-75
2024/01/08 09:53:30;;;;;;;0.60;0.60;;;;;;;-1.45;100.00;102798.66;5039558;28;20033;-75
2024/01/08 09:55:56;;;;;;;0.50;0.50;;;;;;;-1.26;100.00;102803.34;5005802;28;20033;-75
2024/01/08 09:58:24;;;;;;;0.55;0.55;;;;;;;-1.04;100.00;102804.34;5022033;28;20045;-76
2024/01/08 10:00:50;;;;;;;0.60;0.60;;;;;;;-0.90;100.00;102810.06;5021983;28;20060;-75
2024/01/08 10:03:15;;;;;;;0.50;0.50;;;;;;;-0.62;100.00;102809.09;5021947;28;20060;-76
2024/01/08 10:05:41;;;;;;;0.50;0.50;;;;;;;-0.57;100.00;102814.25;5021946;28;20036;-76
2024/01/08 10:08:07;;;;;;;0.50;0.50;;;;;;;-0.44;100.00;102820.81;5021677;28;20040;-76
2024/01/08 10:10:33;;;;;;;0.60;0.60;;;;;;;-0.17;100.00;102824.25;5021751;28;20033;-76
2024/01/08 10:12:59;;;;;;;0.50;0.50;;;;;;;-0.06;100.00;102822.06;5038256;28;20094;-76
2024/01/08 10:15:27;;;;;;;0.50;0.50;;;;;;;-0.19;100.00;102812.88;5021861;28;20033;-76
2024/01/08 10:17:55;;;;;;;0.50;0.50;;;;;;;0.08;100.00;102818.94;5038204;28;20036;-76
2024/01/08 10:20:21;;;;;;;0.60;0.60;;;;;;;0.42;100.00;102818.53;5038492;28;20446;-76
2024/01/08 10:22:47;;;;;;;0.60;0.60;;;;;;;0.96;100.00;102815.50;5022773;28;20029;-76
2024/01/08 10:25:21;;;;;;;0.60;0.60;;;;;;;1.53;100.00;102830.75;5021445;28;20132;-76
2024/01/08 10:27:47;;;;;;;0.60;0.60;;;;;;;1.82;100.00;102828.59;5054758;28;20033;-77
2024/01/08 10:30:13;;;;;;;0.57;0.57;;;;;;;2.08;100.00;102829.22;5021232;28;20434;-77
2024/01/08 10:32:39;;;;;;;0.50;0.50;;;;;;;2.29;100.00;102822.06;5021136;28;20112;-77
2024/01/08 10:35:05;;;;;;;0.60;0.60;;;;;;;2.36;100.00;102823.50;5037585;28;20043;-77
2024/01/08 10:37:30;;;;;;;0.50;0.50;;;;;;;1.96;100.00;102828.84;5037358;28;20048;-77
2024/01/08 10:39:57;;;;;;;0.50;0.50;;;;;;;1.95;100.00;102831.56;5021241;28;20082;-76
2024/01/08 10:42:23;;;;;;;0.50;0.50;;;;;;;1.89;100.00;102826.53;5004446;28;20041;-76
2024/01/08 10:44:49;;;;;;;0.50;0.50;;;;;;;1.88;100.00;102830.09;5020924;28;20029;-76
2024/01/08 10:47:22;;;;;;;0.50;0.50;;;;;;;2.05;100.00;102826.72;5037171;28;20035;-76
2024/01/08 10:49:50;;;;;;;0.50;0.50;;;;;;;2.04;100.00;102825.84;5021618;28;20087;-76
2024/01/08 10:52:28;;;;;;;0.50;0.50;;;;;;;1.91;100.00;102819.38;5020499;28;20087;-75
2024/01/08 10:54:56;;;;;;;0.50;0.50;;;;;;;1.63;100.00;102836.50;5037370;28;20087;-75
2024/01/08 10:57:30;;;;;;;0.50;0.50;;;;;;;1.78;100.00;102828.81;5037382;28;20475;-75
2024/01/08 10:59:57;;;;;;;0.50;0.50;;;;;;;1.82;100.00;102833.03;5053583;28;20029;-75
2024/01/08 11:02:23;;;;;;;0.52;0.52;;;;;;;1.71;100.00;102838.81;5020809;28;20589;-75
2024/01/08 11:04:48;;;;;;;0.50;0.50;;;;;;;1.70;100.00;102822.03;5020683;28;20053;-75
2024/01/08 11:07:15;;;;;;;0.50;0.50;;;;;;;1.67;100.00;102822.19;5020810;28;20123;-75
2024/01/08 11:09:41;;;;;;;0.52;0.52;;;;;;;1.93;100.00;102817.50;5020460;28;20029;-76
2024/01/08 11:12:11;;;;;;;0.50;0.50;;;;;;;1.94;100.00;102821.88;5036727;28;20064;-75
2024/01/08 11:14:38;;;;;;;0.60;0.60;;;;;;;1.67;100.00;102822.19;5020596;28;20436;-76